sensor_id;sensor_type;location;lat;lon;timestamp;temperature;humidity
41953;DHT22;47381;28.206;112.926;2022-09-09T00:02:17;30.80;56.10
41953;DHT22;47381;28.206;112.926;2022-09-09T00:07:43;30.90;56.00
41953;DHT22;47381;28.206;112.926;2022-09-09T00:10:27;30.90;55.90
41953;DHT22;47381;28.206;112.926;2022-09-09T00:16:24;31.00;55.80
41953;DHT22;47381;28.206;112.926;2022-09-09T00:19:02;31.00;55.80
41953;DHT22;47381;28.206;112.926;2022-09-09T00:21:36;31.00;55.60
41953;DHT22;47381;28.206;112.926;2022-09-09T00:24:32;31.10;55.50
41953;DHT22;47381;28.206;112.926;2022-09-09T00:30:25;31.10;55.20
41953;DHT22;47381;28.206;112.926;2022-09-09T00:33:12;31.10;55.10
41953;DHT22;47381;28.206;112.926;2022-09-09T00:35:48;31.20;55.00
41953;DHT22;47381;28.206;112.926;2022-09-09T00:44:31;31.20;54.80
41953;DHT22;47381;28.206;112.926;2022-09-09T00:52:30;31.30;54.70
41953;DHT22;47381;28.206;112.926;2022-09-09T00:55:14;31.20;54.80
41953;DHT22;47381;28.206;112.926;2022-09-09T00:57:45;31.20;54.80
41953;DHT22;47381;28.206;112.926;2022-09-09T01:01:25;31.30;54.70
41953;DHT22;47381;28.206;112.926;2022-09-09T01:06:35;31.30;54.70
41953;DHT22;47381;28.206;112.926;2022-09-09T01:14:29;31.40;55.50
41953;DHT22;47381;28.206;112.926;2022-09-09T01:20:04;31.50;56.60
41953;DHT22;47381;28.206;112.926;2022-09-09T01:22:56;31.50;56.80
41953;DHT22;47381;28.206;112.926;2022-09-09T01:26:32;31.50;55.90
41953;DHT22;47381;28.206;112.926;2022-09-09T01:28:28;31.40;56.90
41953;DHT22;47381;28.206;112.926;2022-09-09T01:30:57;31.50;57.00
41953;DHT22;47381;28.206;112.926;2022-09-09T01:33:24;31.50;56.60
41953;DHT22;47381;28.206;112.926;2022-09-09T01:38:23;31.60;55.80
41953;DHT22;47381;28.206;112.926;2022-09-09T01:40:52;31.70;55.70
41953;DHT22;47381;28.206;112.926;2022-09-09T01:43:24;31.70;55.60
41953;DHT22;47381;28.206;112.926;2022-09-09T01:45:54;31.70;55.50
41953;DHT22;47381;28.206;112.926;2022-09-09T01:48:23;31.70;55.20
41953;DHT22;47381;28.206;112.926;2022-09-09T01:50:52;31.70;54.80
41953;DHT22;47381;28.206;112.926;2022-09-09T01:53:20;31.70;54.70
41953;DHT22;47381;28.206;112.926;2022-09-09T02:02:36;31.80;54.40
41953;DHT22;47381;28.206;112.926;2022-09-09T02:08:00;31.70;54.20
41953;DHT22;47381;28.206;112.926;2022-09-09T02:10:37;31.80;54.00
41953;DHT22;47381;28.206;112.926;2022-09-09T02:13:11;31.90;53.70
41953;DHT22;47381;28.206;112.926;2022-09-09T02:18:43;31.80;53.70
41953;DHT22;47381;28.206;112.926;2022-09-09T02:21:13;32.00;53.50
41953;DHT22;47381;28.206;112.926;2022-09-09T02:23:43;32.00;53.30
41953;DHT22;47381;28.206;112.926;2022-09-09T02:26:12;31.90;53.50
41953;DHT22;47381;28.206;112.926;2022-09-09T02:28:47;32.00;53.20
41953;DHT22;47381;28.206;112.926;2022-09-09T02:31:18;32.10;53.00
41953;DHT22;47381;28.206;112.926;2022-09-09T02:33:52;32.10;52.90
41953;DHT22;47381;28.206;112.926;2022-09-09T02:36:23;32.10;52.80
41953;DHT22;47381;28.206;112.926;2022-09-09T02:38:52;32.10;52.80
41953;DHT22;47381;28.206;112.926;2022-09-09T02:41:32;32.10;52.90
41953;DHT22;47381;28.206;112.926;2022-09-09T02:44:00;32.10;52.80
41953;DHT22;47381;28.206;112.926;2022-09-09T02:54:59;32.30;52.00
41953;DHT22;47381;28.206;112.926;2022-09-09T02:57:31;32.20;51.90
41953;DHT22;47381;28.206;112.926;2022-09-09T03:00:00;32.20;51.90
41953;DHT22;47381;28.206;112.926;2022-09-09T03:02:28;32.30;51.60
41953;DHT22;47381;28.206;112.926;2022-09-09T03:04:55;32.40;51.00
41953;DHT22;47381;28.206;112.926;2022-09-09T03:07:22;32.40;51.10
41953;DHT22;47381;28.206;112.926;2022-09-09T03:09:49;32.50;50.60
41953;DHT22;47381;28.206;112.926;2022-09-09T03:12:16;32.50;50.10
41953;DHT22;47381;28.206;112.926;2022-09-09T03:14:43;32.50;49.90
41953;DHT22;47381;28.206;112.926;2022-09-09T03:17:12;32.60;50.00
41953;DHT22;47381;28.206;112.926;2022-09-09T03:19:39;32.70;49.80
41953;DHT22;47381;28.206;112.926;2022-09-09T03:22:06;32.60;50.00
41953;DHT22;47381;28.206;112.926;2022-09-09T03:24:33;32.70;49.40
41953;DHT22;47381;28.206;112.926;2022-09-09T03:27:00;32.70;49.50
41953;DHT22;47381;28.206;112.926;2022-09-09T03:32:17;32.80;49.20
41953;DHT22;47381;28.206;112.926;2022-09-09T03:35:05;32.90;49.00
41953;DHT22;47381;28.206;112.926;2022-09-09T03:37:32;32.90;49.10
41953;DHT22;47381;28.206;112.926;2022-09-09T03:39:59;32.90;48.90
41953;DHT22;47381;28.206;112.926;2022-09-09T03:42:26;33.00;48.70
41953;DHT22;47381;28.206;112.926;2022-09-09T03:44:53;33.00;48.50
41953;DHT22;47381;28.206;112.926;2022-09-09T03:47:21;32.90;48.50
41953;DHT22;47381;28.206;112.926;2022-09-09T03:50:08;33.00;48.10
41953;DHT22;47381;28.206;112.926;2022-09-09T03:52:41;33.10;47.70
41953;DHT22;47381;28.206;112.926;2022-09-09T03:55:28;33.00;47.10
41953;DHT22;47381;28.206;112.926;2022-09-09T03:57:55;33.20;46.70
41953;DHT22;47381;28.206;112.926;2022-09-09T04:00:22;33.20;46.40
41953;DHT22;47381;28.206;112.926;2022-09-09T04:02:50;33.20;46.20
41953;DHT22;47381;28.206;112.926;2022-09-09T04:05:20;33.20;46.40
41953;DHT22;47381;28.206;112.926;2022-09-09T04:07:47;33.20;46.60
41953;DHT22;47381;28.206;112.926;2022-09-09T04:10:14;33.20;46.20
41953;DHT22;47381;28.206;112.926;2022-09-09T04:12:42;33.30;46.40
41953;DHT22;47381;28.206;112.926;2022-09-09T04:15:09;33.30;46.00
41953;DHT22;47381;28.206;112.926;2022-09-09T04:17:37;33.40;45.80
41953;DHT22;47381;28.206;112.926;2022-09-09T04:20:04;33.40;45.60
41953;DHT22;47381;28.206;112.926;2022-09-09T04:22:31;33.50;45.30
41953;DHT22;47381;28.206;112.926;2022-09-09T04:25:18;33.50;45.10
41953;DHT22;47381;28.206;112.926;2022-09-09T04:27:45;33.50;45.40
41953;DHT22;47381;28.206;112.926;2022-09-09T04:30:13;33.40;45.20
41953;DHT22;47381;28.206;112.926;2022-09-09T04:32:40;33.50;45.00
41953;DHT22;47381;28.206;112.926;2022-09-09T04:35:08;33.40;45.10
41953;DHT22;47381;28.206;112.926;2022-09-09T04:37:35;33.40;45.40
41953;DHT22;47381;28.206;112.926;2022-09-09T04:40:02;33.50;45.30
41953;DHT22;47381;28.206;112.926;2022-09-09T04:42:29;33.60;45.20
41953;DHT22;47381;28.206;112.926;2022-09-09T04:44:56;33.60;45.40
41953;DHT22;47381;28.206;112.926;2022-09-09T04:47:23;33.60;45.50
41953;DHT22;47381;28.206;112.926;2022-09-09T04:49:50;33.60;45.30
41953;DHT22;47381;28.206;112.926;2022-09-09T04:52:20;33.70;45.10
41953;DHT22;47381;28.206;112.926;2022-09-09T04:54:47;33.70;45.20
41953;DHT22;47381;28.206;112.926;2022-09-09T04:57:35;33.70;45.20
41953;DHT22;47381;28.206;112.926;2022-09-09T05:00:08;33.70;45.30
41953;DHT22;47381;28.206;112.926;2022-09-09T05:02:40;33.60;45.40
41953;DHT22;47381;28.206;112.926;2022-09-09T05:05:11;33.70;45.40
41953;DHT22;47381;28.206;112.926;2022-09-09T05:07:38;33.70;45.50
41953;DHT22;47381;28.206;112.926;2022-09-09T05:10:05;33.70;45.60
41953;DHT22;47381;28.206;112.926;2022-09-09T05:12:32;33.70;45.90
41953;DHT22;47381;28.206;112.926;2022-09-09T05:15:00;33.70;46.10
41953;DHT22;47381;28.206;112.926;2022-09-09T05:17:27;33.70;46.30
41953;DHT22;47381;28.206;112.926;2022-09-09T05:20:14;33.70;46.30
41953;DHT22;47381;28.206;112.926;2022-09-09T05:22:41;33.60;46.50
41953;DHT22;47381;28.206;112.926;2022-09-09T05:25:11;33.70;46.40
41953;DHT22;47381;28.206;112.926;2022-09-09T05:27:58;33.80;46.50
41953;DHT22;47381;28.206;112.926;2022-09-09T05:30:25;33.90;46.30
41953;DHT22;47381;28.206;112.926;2022-09-09T05:32:55;33.80;46.40
41953;DHT22;47381;28.206;112.926;2022-09-09T05:35:22;33.80;46.30
41953;DHT22;47381;28.206;112.926;2022-09-09T05:37:49;33.80;46.30
41953;DHT22;47381;28.206;112.926;2022-09-09T05:40:16;33.80;46.10
41953;DHT22;47381;28.206;112.926;2022-09-09T05:42:44;33.80;46.20
41953;DHT22;47381;28.206;112.926;2022-09-09T05:45:13;33.80;46.30
41953;DHT22;47381;28.206;112.926;2022-09-09T05:47:40;33.90;46.30
41953;DHT22;47381;28.206;112.926;2022-09-09T05:50:08;33.90;46.20
41953;DHT22;47381;28.206;112.926;2022-09-09T05:52:35;33.90;46.10
41953;DHT22;47381;28.206;112.926;2022-09-09T05:55:02;34.00;46.00
41953;DHT22;47381;28.206;112.926;2022-09-09T05:57:30;34.00;46.00
41953;DHT22;47381;28.206;112.926;2022-09-09T05:59:57;33.90;46.10
41953;DHT22;47381;28.206;112.926;2022-09-09T06:02:26;33.80;46.30
41953;DHT22;47381;28.206;112.926;2022-09-09T06:04:53;33.80;46.30
41953;DHT22;47381;28.206;112.926;2022-09-09T06:07:22;33.90;46.10
41953;DHT22;47381;28.206;112.926;2022-09-09T06:09:49;33.90;45.90
41953;DHT22;47381;28.206;112.926;2022-09-09T06:12:17;34.00;45.80
41953;DHT22;47381;28.206;112.926;2022-09-09T06:14:45;33.90;45.70
41953;DHT22;47381;28.206;112.926;2022-09-09T06:17:12;34.00;45.60
41953;DHT22;47381;28.206;112.926;2022-09-09T06:19:39;34.10;45.50
41953;DHT22;47381;28.206;112.926;2022-09-09T06:22:06;34.10;45.40
41953;DHT22;47381;28.206;112.926;2022-09-09T06:24:33;34.10;45.40
41953;DHT22;47381;28.206;112.926;2022-09-09T06:27:01;34.10;45.50
41953;DHT22;47381;28.206;112.926;2022-09-09T06:29:29;34.10;45.50
41953;DHT22;47381;28.206;112.926;2022-09-09T06:31:56;34.10;45.40
41953;DHT22;47381;28.206;112.926;2022-09-09T06:34:24;34.00;45.50
41953;DHT22;47381;28.206;112.926;2022-09-09T06:36:51;34.00;45.50
41953;DHT22;47381;28.206;112.926;2022-09-09T06:39:18;34.10;45.50
41953;DHT22;47381;28.206;112.926;2022-09-09T06:41:45;34.00;45.40
41953;DHT22;47381;28.206;112.926;2022-09-09T06:44:13;34.00;45.40
41953;DHT22;47381;28.206;112.926;2022-09-09T06:46:42;34.00;45.30
41953;DHT22;47381;28.206;112.926;2022-09-09T06:49:09;34.00;45.40
41953;DHT22;47381;28.206;112.926;2022-09-09T06:51:38;33.90;45.50
41953;DHT22;47381;28.206;112.926;2022-09-09T06:54:10;33.80;45.40
41953;DHT22;47381;28.206;112.926;2022-09-09T06:56:39;33.80;45.50
41953;DHT22;47381;28.206;112.926;2022-09-09T06:59:10;33.90;45.50
41953;DHT22;47381;28.206;112.926;2022-09-09T07:01:40;33.90;45.50
41953;DHT22;47381;28.206;112.926;2022-09-09T07:04:08;33.80;45.50
41953;DHT22;47381;28.206;112.926;2022-09-09T07:06:44;33.80;45.60
41953;DHT22;47381;28.206;112.926;2022-09-09T07:09:14;33.80;45.70
41953;DHT22;47381;28.206;112.926;2022-09-09T07:11:49;33.70;45.80
41953;DHT22;47381;28.206;112.926;2022-09-09T07:14:20;33.80;45.80
41953;DHT22;47381;28.206;112.926;2022-09-09T07:16:47;33.70;45.90
41953;DHT22;47381;28.206;112.926;2022-09-09T07:19:15;33.70;46.10
41953;DHT22;47381;28.206;112.926;2022-09-09T07:21:43;33.70;46.20
41953;DHT22;47381;28.206;112.926;2022-09-09T07:24:10;33.70;46.30
41953;DHT22;47381;28.206;112.926;2022-09-09T07:26:39;33.70;46.50
41953;DHT22;47381;28.206;112.926;2022-09-09T07:29:07;33.60;46.80
41953;DHT22;47381;28.206;112.926;2022-09-09T07:31:37;33.70;46.70
41953;DHT22;47381;28.206;112.926;2022-09-09T07:34:06;33.70;46.70
41953;DHT22;47381;28.206;112.926;2022-09-09T07:36:41;33.50;46.90
41953;DHT22;47381;28.206;112.926;2022-09-09T07:39:28;33.60;46.80
41953;DHT22;47381;28.206;112.926;2022-09-09T07:41:55;33.60;46.80
41953;DHT22;47381;28.206;112.926;2022-09-09T07:44:25;33.60;46.80
41953;DHT22;47381;28.206;112.926;2022-09-09T07:46:56;33.50;46.90
41953;DHT22;47381;28.206;112.926;2022-09-09T07:49:23;33.50;47.00
41953;DHT22;47381;28.206;112.926;2022-09-09T07:51:50;33.50;47.00
41953;DHT22;47381;28.206;112.926;2022-09-09T07:54:19;33.50;46.90
41953;DHT22;47381;28.206;112.926;2022-09-09T07:56:50;33.60;46.90
41953;DHT22;47381;28.206;112.926;2022-09-09T07:59:20;33.60;46.90
41953;DHT22;47381;28.206;112.926;2022-09-09T08:01:50;33.60;46.70
41953;DHT22;47381;28.206;112.926;2022-09-09T08:04:22;33.60;46.60
41953;DHT22;47381;28.206;112.926;2022-09-09T08:06:55;33.60;46.50
41953;DHT22;47381;28.206;112.926;2022-09-09T08:09:24;33.60;46.60
41953;DHT22;47381;28.206;112.926;2022-09-09T08:11:53;33.60;46.50
41953;DHT22;47381;28.206;112.926;2022-09-09T08:14:22;33.50;46.50
41953;DHT22;47381;28.206;112.926;2022-09-09T08:16:50;33.50;46.40
41953;DHT22;47381;28.206;112.926;2022-09-09T08:19:19;33.50;46.40
41953;DHT22;47381;28.206;112.926;2022-09-09T08:21:46;33.50;46.50
41953;DHT22;47381;28.206;112.926;2022-09-09T08:24:15;33.50;46.50
41953;DHT22;47381;28.206;112.926;2022-09-09T08:26:47;33.50;46.40
41953;DHT22;47381;28.206;112.926;2022-09-09T08:32:05;33.40;46.70
41953;DHT22;47381;28.206;112.926;2022-09-09T08:34:32;33.30;46.60
41953;DHT22;47381;28.206;112.926;2022-09-09T08:36:59;33.40;46.50
41953;DHT22;47381;28.206;112.926;2022-09-09T08:39:26;33.40;46.40
41953;DHT22;47381;28.206;112.926;2022-09-09T08:53:16;33.40;46.30
41953;DHT22;47381;28.206;112.926;2022-09-09T08:56:04;33.30;46.10
41953;DHT22;47381;28.206;112.926;2022-09-09T08:58:38;33.40;45.90
41953;DHT22;47381;28.206;112.926;2022-09-09T09:01:30;33.50;45.70
41953;DHT22;47381;28.206;112.926;2022-09-09T09:04:27;33.40;45.80
41953;DHT22;47381;28.206;112.926;2022-09-09T09:12:41;33.40;45.40
41953;DHT22;47381;28.206;112.926;2022-09-09T09:15:23;33.40;45.30
41953;DHT22;47381;28.206;112.926;2022-09-09T09:17:51;33.40;45.30
41953;DHT22;47381;28.206;112.926;2022-09-09T09:20:28;33.40;45.50
41953;DHT22;47381;28.206;112.926;2022-09-09T09:23:01;33.20;45.40
41953;DHT22;47381;28.206;112.926;2022-09-09T09:25:38;33.20;45.00
41953;DHT22;47381;28.206;112.926;2022-09-09T09:28:25;33.30;44.80
41953;DHT22;47381;28.206;112.926;2022-09-09T09:35:59;33.20;44.90
41953;DHT22;47381;28.206;112.926;2022-09-09T09:38:27;33.20;44.50
41953;DHT22;47381;28.206;112.926;2022-09-09T09:40:59;33.20;44.60
41953;DHT22;47381;28.206;112.926;2022-09-09T09:43:31;33.10;44.70
41953;DHT22;47381;28.206;112.926;2022-09-09T09:46:00;33.20;44.70
41953;DHT22;47381;28.206;112.926;2022-09-09T09:48:28;33.10;44.10
41953;DHT22;47381;28.206;112.926;2022-09-09T09:51:24;33.10;44.40
41953;DHT22;47381;28.206;112.926;2022-09-09T09:53:51;33.10;44.30
41953;DHT22;47381;28.206;112.926;2022-09-09T09:56:30;33.20;44.20
41953;DHT22;47381;28.206;112.926;2022-09-09T09:58:58;33.10;44.20
41953;DHT22;47381;28.206;112.926;2022-09-09T10:01:30;33.20;44.30
41953;DHT22;47381;28.206;112.926;2022-09-09T10:04:16;33.00;44.10
41953;DHT22;47381;28.206;112.926;2022-09-09T10:06:45;33.00;44.50
41953;DHT22;47381;28.206;112.926;2022-09-09T10:09:25;33.00;44.20
41953;DHT22;47381;28.206;112.926;2022-09-09T10:23:25;32.90;44.20
41953;DHT22;47381;28.206;112.926;2022-09-09T10:28:38;32.90;44.40
41953;DHT22;47381;28.206;112.926;2022-09-09T10:33:51;33.00;44.40
41953;DHT22;47381;28.206;112.926;2022-09-09T10:36:26;32.90;44.30
41953;DHT22;47381;28.206;112.926;2022-09-09T10:38:58;32.90;44.60
41953;DHT22;47381;28.206;112.926;2022-09-09T10:41:40;32.90;44.70
41953;DHT22;47381;28.206;112.926;2022-09-09T10:47:19;32.90;44.50
41953;DHT22;47381;28.206;112.926;2022-09-09T10:53:14;32.80;44.40
41953;DHT22;47381;28.206;112.926;2022-09-09T10:56:02;32.80;44.50
41953;DHT22;47381;28.206;112.926;2022-09-09T10:58:43;32.80;44.60
41953;DHT22;47381;28.206;112.926;2022-09-09T11:04:00;32.80;44.40
41953;DHT22;47381;28.206;112.926;2022-09-09T11:06:41;32.80;44.30
41953;DHT22;47381;28.206;112.926;2022-09-09T11:09:19;32.80;44.50
41953;DHT22;47381;28.206;112.926;2022-09-09T11:11:58;32.70;44.40
41953;DHT22;47381;28.206;112.926;2022-09-09T11:14:48;32.70;44.50
41953;DHT22;47381;28.206;112.926;2022-09-09T11:17:22;32.70;44.30
41953;DHT22;47381;28.206;112.926;2022-09-09T11:19:52;32.70;44.50
41953;DHT22;47381;28.206;112.926;2022-09-09T11:22:31;32.70;44.50
41953;DHT22;47381;28.206;112.926;2022-09-09T11:25:01;32.70;44.40
41953;DHT22;47381;28.206;112.926;2022-09-09T11:30:34;32.70;44.40
41953;DHT22;47381;28.206;112.926;2022-09-09T11:45:21;32.60;44.00
41953;DHT22;47381;28.206;112.926;2022-09-09T11:47:58;32.60;44.20
41953;DHT22;47381;28.206;112.926;2022-09-09T11:56:03;32.60;44.70
41953;DHT22;47381;28.206;112.926;2022-09-09T11:58:42;32.60;44.60
41953;DHT22;47381;28.206;112.926;2022-09-09T12:01:30;32.60;44.40
41953;DHT22;47381;28.206;112.926;2022-09-09T12:07:31;32.50;43.90
41953;DHT22;47381;28.206;112.926;2022-09-09T12:13:19;32.60;43.90
41953;DHT22;47381;28.206;112.926;2022-09-09T12:15:48;32.50;44.10
41953;DHT22;47381;28.206;112.926;2022-09-09T12:18:24;32.50;43.90
41953;DHT22;47381;28.206;112.926;2022-09-09T12:21:10;32.50;43.90
41953;DHT22;47381;28.206;112.926;2022-09-09T12:24:07;32.50;43.90
41953;DHT22;47381;28.206;112.926;2022-09-09T12:26:52;32.50;43.70
41953;DHT22;47381;28.206;112.926;2022-09-09T12:29:55;32.50;43.40
41953;DHT22;47381;28.206;112.926;2022-09-09T12:32:26;32.50;43.30
41953;DHT22;47381;28.206;112.926;2022-09-09T12:35:11;32.50;43.30
41953;DHT22;47381;28.206;112.926;2022-09-09T12:38:00;32.40;43.40
41953;DHT22;47381;28.206;112.926;2022-09-09T12:40:35;32.30;43.80
41953;DHT22;47381;28.206;112.926;2022-09-09T12:43:19;32.40;43.50
41953;DHT22;47381;28.206;112.926;2022-09-09T12:45:51;32.40;43.80
41953;DHT22;47381;28.206;112.926;2022-09-09T12:48:32;32.50;43.50
41953;DHT22;47381;28.206;112.926;2022-09-09T12:51:01;32.40;43.30
41953;DHT22;47381;28.206;112.926;2022-09-09T12:53:36;32.40;43.20
41953;DHT22;47381;28.206;112.926;2022-09-09T12:56:17;32.40;43.30
41953;DHT22;47381;28.206;112.926;2022-09-09T12:58:47;32.40;43.60
41953;DHT22;47381;28.206;112.926;2022-09-09T13:01:32;32.40;43.50
41953;DHT22;47381;28.206;112.926;2022-09-09T13:04:00;32.40;43.50
41953;DHT22;47381;28.206;112.926;2022-09-09T13:06:29;32.40;43.50
41953;DHT22;47381;28.206;112.926;2022-09-09T13:08:59;32.40;43.30
41953;DHT22;47381;28.206;112.926;2022-09-09T13:11:53;32.40;43.30
41953;DHT22;47381;28.206;112.926;2022-09-09T13:14:29;32.40;43.60
41953;DHT22;47381;28.206;112.926;2022-09-09T13:17:23;32.40;43.70
41953;DHT22;47381;28.206;112.926;2022-09-09T13:19:51;32.40;43.60
41953;DHT22;47381;28.206;112.926;2022-09-09T13:22:44;32.30;43.50
41953;DHT22;47381;28.206;112.926;2022-09-09T13:25:24;32.40;43.70
41953;DHT22;47381;28.206;112.926;2022-09-09T13:28:02;32.40;43.40
41953;DHT22;47381;28.206;112.926;2022-09-09T13:35:54;32.30;43.90
41953;DHT22;47381;28.206;112.926;2022-09-09T13:38:22;32.30;44.00
41953;DHT22;47381;28.206;112.926;2022-09-09T13:41:01;32.30;43.40
41953;DHT22;47381;28.206;112.926;2022-09-09T13:43:38;32.30;43.60
41953;DHT22;47381;28.206;112.926;2022-09-09T13:46:36;32.30;43.70
41953;DHT22;47381;28.206;112.926;2022-09-09T13:52:05;32.30;43.70
41953;DHT22;47381;28.206;112.926;2022-09-09T13:54:33;32.30;43.90
41953;DHT22;47381;28.206;112.926;2022-09-09T13:57:01;32.30;43.80
41953;DHT22;47381;28.206;112.926;2022-09-09T13:59:33;32.30;44.00
41953;DHT22;47381;28.206;112.926;2022-09-09T14:02:02;32.30;44.10
41953;DHT22;47381;28.206;112.926;2022-09-09T14:04:31;32.30;44.30
41953;DHT22;47381;28.206;112.926;2022-09-09T14:07:01;32.30;44.20
41953;DHT22;47381;28.206;112.926;2022-09-09T14:09:29;32.30;44.30
41953;DHT22;47381;28.206;112.926;2022-09-09T14:11:56;32.30;44.20
41953;DHT22;47381;28.206;112.926;2022-09-09T14:14:44;32.30;44.20
41953;DHT22;47381;28.206;112.926;2022-09-09T14:17:13;32.30;44.00
41953;DHT22;47381;28.206;112.926;2022-09-09T14:19:41;32.30;44.00
41953;DHT22;47381;28.206;112.926;2022-09-09T14:22:29;32.30;44.20
41953;DHT22;47381;28.206;112.926;2022-09-09T14:24:56;32.30;44.40
41953;DHT22;47381;28.206;112.926;2022-09-09T14:27:25;32.30;44.50
41953;DHT22;47381;28.206;112.926;2022-09-09T14:29:55;32.30;44.40
41953;DHT22;47381;28.206;112.926;2022-09-09T14:32:23;32.20;44.70
41953;DHT22;47381;28.206;112.926;2022-09-09T14:34:50;32.20;44.60
41953;DHT22;47381;28.206;112.926;2022-09-09T14:37:18;32.20;44.60
41953;DHT22;47381;28.206;112.926;2022-09-09T14:40:06;32.20;44.50
41953;DHT22;47381;28.206;112.926;2022-09-09T14:42:33;32.20;44.50
41953;DHT22;47381;28.206;112.926;2022-09-09T14:45:00;32.20;44.70
41953;DHT22;47381;28.206;112.926;2022-09-09T14:47:28;32.20;44.70
41953;DHT22;47381;28.206;112.926;2022-09-09T14:49:55;32.20;44.80
41953;DHT22;47381;28.206;112.926;2022-09-09T14:52:22;32.20;44.70
41953;DHT22;47381;28.206;112.926;2022-09-09T14:54:49;32.20;44.60
41953;DHT22;47381;28.206;112.926;2022-09-09T14:57:16;32.20;44.70
41953;DHT22;47381;28.206;112.926;2022-09-09T14:59:43;32.20;44.80
41953;DHT22;47381;28.206;112.926;2022-09-09T15:02:11;32.20;44.70
41953;DHT22;47381;28.206;112.926;2022-09-09T15:04:39;32.20;44.80
41953;DHT22;47381;28.206;112.926;2022-09-09T15:07:06;32.20;44.90
41953;DHT22;47381;28.206;112.926;2022-09-09T15:09:37;32.20;44.80
41953;DHT22;47381;28.206;112.926;2022-09-09T15:12:04;32.20;45.00
41953;DHT22;47381;28.206;112.926;2022-09-09T15:14:31;32.20;45.00
41953;DHT22;47381;28.206;112.926;2022-09-09T15:17:04;32.20;45.10
41953;DHT22;47381;28.206;112.926;2022-09-09T15:19:31;32.20;45.10
41953;DHT22;47381;28.206;112.926;2022-09-09T15:22:02;32.20;45.20
41953;DHT22;47381;28.206;112.926;2022-09-09T15:24:32;32.20;45.20
41953;DHT22;47381;28.206;112.926;2022-09-09T15:27:00;32.20;45.30
41953;DHT22;47381;28.206;112.926;2022-09-09T15:29:27;32.20;45.50
41953;DHT22;47381;28.206;112.926;2022-09-09T15:31:55;32.20;45.60
41953;DHT22;47381;28.206;112.926;2022-09-09T15:34:22;32.10;45.10
41953;DHT22;47381;28.206;112.926;2022-09-09T15:36:50;32.20;44.80
41953;DHT22;47381;28.206;112.926;2022-09-09T15:39:18;32.20;44.10
41953;DHT22;47381;28.206;112.926;2022-09-09T15:41:47;32.10;43.80
41953;DHT22;47381;28.206;112.926;2022-09-09T15:44:15;32.10;43.40
41953;DHT22;47381;28.206;112.926;2022-09-09T15:46:48;32.00;42.90
41953;DHT22;47381;28.206;112.926;2022-09-09T15:49:25;32.00;42.70
41953;DHT22;47381;28.206;112.926;2022-09-09T15:52:00;32.00;42.20
41953;DHT22;47381;28.206;112.926;2022-09-09T15:54:34;32.00;41.90
41953;DHT22;47381;28.206;112.926;2022-09-09T15:57:04;32.00;41.30
41953;DHT22;47381;28.206;112.926;2022-09-09T15:59:32;32.00;41.10
41953;DHT22;47381;28.206;112.926;2022-09-09T16:02:01;32.00;40.90
41953;DHT22;47381;28.206;112.926;2022-09-09T16:04:36;31.90;40.80
41953;DHT22;47381;28.206;112.926;2022-09-09T16:07:05;31.90;40.70
41953;DHT22;47381;28.206;112.926;2022-09-09T16:09:35;31.90;41.00
41953;DHT22;47381;28.206;112.926;2022-09-09T16:12:04;32.00;41.10
41953;DHT22;47381;28.206;112.926;2022-09-09T16:14:37;31.90;41.30
41953;DHT22;47381;28.206;112.926;2022-09-09T16:17:06;31.90;41.20
41953;DHT22;47381;28.206;112.926;2022-09-09T16:19:33;31.90;41.20
41953;DHT22;47381;28.206;112.926;2022-09-09T16:22:01;31.80;40.80
41953;DHT22;47381;28.206;112.926;2022-09-09T16:24:32;31.80;40.50
41953;DHT22;47381;28.206;112.926;2022-09-09T16:26:59;31.70;40.30
41953;DHT22;47381;28.206;112.926;2022-09-09T16:29:27;31.70;39.70
41953;DHT22;47381;28.206;112.926;2022-09-09T16:31:56;31.80;39.70
41953;DHT22;47381;28.206;112.926;2022-09-09T16:34:23;31.70;39.80
41953;DHT22;47381;28.206;112.926;2022-09-09T16:36:53;31.80;40.10
41953;DHT22;47381;28.206;112.926;2022-09-09T16:39:20;31.80;40.10
41953;DHT22;47381;28.206;112.926;2022-09-09T16:41:49;31.70;39.90
41953;DHT22;47381;28.206;112.926;2022-09-09T16:44:18;31.80;39.30
41953;DHT22;47381;28.206;112.926;2022-09-09T16:46:47;31.80;39.20
41953;DHT22;47381;28.206;112.926;2022-09-09T16:49:21;31.70;39.40
41953;DHT22;47381;28.206;112.926;2022-09-09T16:51:49;31.70;39.30
41953;DHT22;47381;28.206;112.926;2022-09-09T16:54:19;31.70;39.10
41953;DHT22;47381;28.206;112.926;2022-09-09T16:56:48;31.70;39.00
41953;DHT22;47381;28.206;112.926;2022-09-09T16:59:20;31.70;39.00
41953;DHT22;47381;28.206;112.926;2022-09-09T17:01:50;31.70;38.50
41953;DHT22;47381;28.206;112.926;2022-09-09T17:04:22;31.60;38.20
41953;DHT22;47381;28.206;112.926;2022-09-09T17:06:53;31.70;38.40
41953;DHT22;47381;28.206;112.926;2022-09-09T17:09:21;31.70;38.20
41953;DHT22;47381;28.206;112.926;2022-09-09T17:11:49;31.70;38.40
41953;DHT22;47381;28.206;112.926;2022-09-09T17:14:20;31.70;38.90
41953;DHT22;47381;28.206;112.926;2022-09-09T17:16:48;31.60;38.70
41953;DHT22;47381;28.206;112.926;2022-09-09T17:19:15;31.70;38.90
41953;DHT22;47381;28.206;112.926;2022-09-09T17:21:42;31.60;39.30
41953;DHT22;47381;28.206;112.926;2022-09-09T17:24:11;31.70;39.30
41953;DHT22;47381;28.206;112.926;2022-09-09T17:26:39;31.60;39.60
41953;DHT22;47381;28.206;112.926;2022-09-09T17:29:07;31.60;39.40
41953;DHT22;47381;28.206;112.926;2022-09-09T17:31:34;31.70;39.50
41953;DHT22;47381;28.206;112.926;2022-09-09T17:34:01;31.70;39.20
41953;DHT22;47381;28.206;112.926;2022-09-09T17:36:32;31.60;39.10
41953;DHT22;47381;28.206;112.926;2022-09-09T17:39:01;31.60;39.20
41953;DHT22;47381;28.206;112.926;2022-09-09T17:41:33;31.60;39.80
41953;DHT22;47381;28.206;112.926;2022-09-09T17:44:00;31.60;40.30
41953;DHT22;47381;28.206;112.926;2022-09-09T17:46:33;31.60;40.40
41953;DHT22;47381;28.206;112.926;2022-09-09T17:49:10;31.60;40.60
41953;DHT22;47381;28.206;112.926;2022-09-09T17:51:38;31.50;40.10
41953;DHT22;47381;28.206;112.926;2022-09-09T17:54:25;31.50;41.20
41953;DHT22;47381;28.206;112.926;2022-09-09T17:56:52;31.50;40.40
41953;DHT22;47381;28.206;112.926;2022-09-09T17:59:19;31.50;40.70